Friday, November 28, 2014
15:47 UTC
  |  Log In   |  Register Free
Airport Search:

Southwest Georgia Regional Airport
(KABY)

FAA data valid effective November 13, 2014 - January 08, 2015 (unless otherwise noted).

 
 
 
 
 
 
 
 
 
 
 
 
 
 

Current Aviation Weather for Southwest Georgia Regional Airport (KABY)

The most recent METAR observation for KABY was updated at: 1508
METAR Summary (Translated METAR)
KABY
281453Z 03006KT 10SM CLR 06/M02 A3045 RMK AO2 SLP312 T00561022 51013 $
KMGR
281455Z AUTO 02004KT 10SM CLR 05/M01 A3042 RMK AO2
(33.7 nm SE from KABY)
KACJ
281455Z AUTO 06008KT 10SM CLR 03/M03 A3044 RMK AO2
(34.5 nm NE from KABY)
TAF Summary (Translated TAF)
KABY
281129Z 2812/2912 02004KT P6SM SKC
  Airport Weather Conditions for KABY

 Current Weather at ABY
42° F
Fair
Northeast winds at 6.9 mph
ABY NOAA Radar

Pressure: 30.45 in
Humidity: 58%
Wind: Northeast at 6.9 MPH (6 KT)
Dew Point: 28.0°F
Visibility: 10.00 mi


Airport Weather Forecast for KABY

Translated METAR and TAF for KABY
Translated METAR for KABY (1542 UTC 28 November 2014)
found at http://aviationweather.gov/adds/metars/
 
METAR text: KABY 281453Z 03006KT 10SM CLR 06/M02 A3045 RMK AO2 SLP312 T00561022 51013 $
Conditions at: KABY (ALBANY , GA, US) observed 1453 UTC 28 November 2014
Temperature: 5.6°C (42°F)
Dewpoint: -2.2°C (28°F) [RH = 57%]
Pressure (altimeter): 30.45 inches Hg (1031.2 mb)
[Sea-level pressure: 1031.2 mb]
Winds: from the NNE (30 degrees) at 7 MPH (6 knots; 3.1 m/s)
Visibility: 10 or more miles (16+ km)
Ceiling: at least 12,000 feet AGL
Clouds: sky clear below 12,000 feet AGL
Weather:
SOME DATA ABOVE MAY BE INACCURATE!!!
"$" is an indication the sensor requires maintenance
Translated TAF for KABY
Forecast for: KABY (ALBANY , GA, US)
TAF Text: KABY 281129Z 2812/2912 02004KT P6SM SKC
Forecast period: 1200 UTC 28 November 2014 to 1200 UTC 29 November 2014
Forecast type: FROM: standard forecast or significant change
Winds: from the NNE (20 degrees) at 5 MPH (4 knots; 2.1 m/s)
Visibility: 6 or more miles (10+ km)
Clouds: clear skies
Weather: no significant weather forecast for this period

Find All Airport Services Find A Hotel Find A Rental Car Find A Golf Course Find A Restaurant $100 Hamburger



FBO's on the Field
FBO Company Facility Photos Services Transportation Aviation Fuel Prices: Prices include tax
Catering Weather Repair Courtesy Rental Type 100LL JetA JetA+ MOGAS 8087
 
Eagles of America, Inc. - ABY

Currently rated 5 by 1 person
FS:Epic
Last Updated: Nov-24
Login to update fuel prices
SS:
Contact Eagles of America, Inc. - ABYMore FBO Information
 
Add another FBO Facility Photos Catering Weather Repair Courtesy Rental Type 100LL JetA JetA+ MOGAS 8087
Services Transportation Aviation Fuel Prices: Prices include tax


model-print
model-print
model-print
model-print